createdAt,value
2016-03-25T00:00:50.263Z,1005.64
2016-03-25T00:01:50.328Z,1005.69
2016-03-25T00:02:50.362Z,1005.67
2016-03-25T00:03:50.411Z,1005.64
2016-03-25T00:04:50.476Z,1005.64
2016-03-25T00:05:50.526Z,1005.63
2016-03-25T00:06:50.568Z,1005.61
2016-03-25T00:07:50.632Z,1005.61
2016-03-25T00:08:50.681Z,1005.62
2016-03-25T00:09:50.731Z,1005.59
2016-03-25T00:10:50.781Z,1005.57
2016-03-25T00:11:50.831Z,1005.52
2016-03-25T00:12:50.880Z,1005.53
2016-03-25T00:13:50.929Z,1005.52
2016-03-25T00:14:50.979Z,1005.54
2016-03-25T00:15:51.044Z,1005.55
2016-03-25T00:16:51.094Z,1005.54
2016-03-25T00:17:51.128Z,1005.54
2016-03-25T00:18:51.192Z,1005.5
2016-03-25T00:19:51.242Z,1005.5
2016-03-25T00:20:51.292Z,1005.49
2016-03-25T00:21:51.341Z,1005.46
2016-03-25T00:22:51.391Z,1005.46
2016-03-25T00:23:51.456Z,1005.46
2016-03-25T00:24:51.505Z,1005.46
2016-03-25T00:25:51.540Z,1005.43
2016-03-25T00:26:51.605Z,1005.45
2016-03-25T00:27:51.654Z,1005.44
2016-03-25T00:28:51.705Z,1005.43
2016-03-25T00:29:51.754Z,1005.47
2016-03-25T00:30:51.803Z,1005.48
2016-03-25T00:31:51.852Z,1005.44
2016-03-25T00:32:51.902Z,1005.44
2016-03-25T00:33:51.968Z,1005.46
2016-03-25T00:34:52.002Z,1005.45
2016-03-25T00:35:52.067Z,1005.44
2016-03-25T00:36:52.101Z,1005.41
2016-03-25T00:37:52.165Z,1005.38
2016-03-25T00:38:52.215Z,1005.44
2016-03-25T00:39:52.265Z,1005.43
2016-03-25T00:40:52.314Z,1005.43
2016-03-25T00:41:52.364Z,1005.43
2016-03-25T00:42:52.414Z,1005.42
2016-03-25T00:43:52.463Z,1005.41
2016-03-25T00:44:52.529Z,1005.4
2016-03-25T00:45:52.562Z,1005.42
2016-03-25T00:46:52.611Z,1005.4
2016-03-25T00:47:52.678Z,1005.41
2016-03-25T00:48:52.727Z,1005.44
2016-03-25T00:49:52.775Z,1005.4
2016-03-25T00:50:52.826Z,1005.39
2016-03-25T00:51:52.891Z,1005.34
2016-03-25T00:52:52.925Z,1005.42
2016-03-25T00:53:52.975Z,1005.38
2016-03-25T00:54:53.024Z,1005.39
2016-03-25T00:55:53.089Z,1005.36
2016-03-25T00:56:53.138Z,1005.33
2016-03-25T00:57:53.188Z,1005.37
2016-03-25T00:58:53.237Z,1005.35
2016-03-25T00:59:53.288Z,1005.34
2016-03-25T01:00:53.337Z,1005.34
2016-03-25T01:01:53.387Z,1005.28
2016-03-25T01:02:53.436Z,1005.29
2016-03-25T01:03:53.502Z,1005.3
2016-03-25T01:04:53.551Z,1005.27
2016-03-25T01:05:53.585Z,1005.33
2016-03-25T01:06:53.666Z,1005.29
2016-03-25T01:07:53.699Z,1005.27
2016-03-25T01:08:53.749Z,1005.25
2016-03-25T01:09:53.799Z,1005.24
2016-03-25T01:10:53.848Z,1005.22
2016-03-25T01:11:53.898Z,1005.19
2016-03-25T01:12:53.947Z,1005.19
2016-03-25T01:13:54.012Z,1005.19
2016-03-25T01:14:54.047Z,1005.17
2016-03-25T01:15:54.096Z,1005.16
2016-03-25T01:16:54.162Z,1005.15
2016-03-25T01:17:54.211Z,1005.1
2016-03-25T01:18:54.261Z,1005.12
2016-03-25T01:19:54.311Z,1005.07
2016-03-25T01:20:54.359Z,1005.12
2016-03-25T01:21:54.409Z,1005.05
2016-03-25T01:22:54.474Z,1005.05
2016-03-25T01:23:54.524Z,1005.03
2016-03-25T01:24:54.574Z,1005.08
2016-03-25T01:25:54.623Z,1005.03
2016-03-25T01:26:54.672Z,1005.04
2016-03-25T01:27:54.722Z,1004.99
2016-03-25T01:28:54.771Z,1004.99
2016-03-25T01:29:54.822Z,1005
2016-03-25T01:30:54.871Z,1004.97
2016-03-25T01:31:54.936Z,1004.97
2016-03-25T01:32:54.970Z,1004.99
2016-03-25T01:33:55.035Z,1004.98
2016-03-25T01:34:55.085Z,1004.99
2016-03-25T01:35:55.119Z,1004.96
2016-03-25T01:36:55.168Z,1004.98
2016-03-25T01:37:55.249Z,1004.97
2016-03-25T01:38:55.282Z,1004.96
2016-03-25T01:39:55.332Z,1004.94
2016-03-25T01:40:55.382Z,1004.93
2016-03-25T01:41:55.432Z,1004.88
2016-03-25T01:42:55.497Z,1004.88
2016-03-25T01:43:55.531Z,1004.92
2016-03-25T01:44:55.581Z,1004.89
2016-03-25T01:45:55.645Z,1004.87
2016-03-25T01:46:55.679Z,1004.88
2016-03-25T01:47:55.745Z,1004.89
2016-03-25T01:48:55.794Z,1004.87
2016-03-25T01:49:55.844Z,1004.85
2016-03-25T01:50:55.894Z,1004.83
2016-03-25T01:51:55.942Z,1004.78
2016-03-25T01:52:56.024Z,1004.78
2016-03-25T01:53:56.058Z,1004.81
2016-03-25T01:54:56.091Z,1004.84
2016-03-25T01:55:56.141Z,1004.85
2016-03-25T01:56:56.206Z,1004.85
2016-03-25T01:57:56.256Z,1004.85
2016-03-25T01:58:56.305Z,1004.84
2016-03-25T01:59:56.355Z,1004.85
2016-03-25T02:00:56.405Z,1004.82
2016-03-25T02:01:56.455Z,1004.81
2016-03-25T02:02:56.519Z,1004.76
2016-03-25T02:03:56.568Z,1004.8
2016-03-25T02:04:56.602Z,1004.75
2016-03-25T02:05:56.668Z,1004.72
2016-03-25T02:06:56.718Z,1004.75
2016-03-25T02:07:56.767Z,1004.72
2016-03-25T02:08:56.848Z,1004.7
2016-03-25T02:09:56.866Z,1004.73
2016-03-25T02:10:56.915Z,1004.72
2016-03-25T02:11:56.965Z,1004.72
2016-03-25T02:12:57.015Z,1004.68
2016-03-25T02:13:57.080Z,1004.68
2016-03-25T02:14:57.130Z,1004.67
2016-03-25T02:15:57.164Z,1004.7
2016-03-25T02:16:57.213Z,1004.72
2016-03-25T02:17:57.279Z,1004.64
2016-03-25T02:18:57.328Z,1004.68
2016-03-25T02:19:57.392Z,1004.66
2016-03-25T02:20:57.428Z,1004.65
2016-03-25T02:21:57.477Z,1004.62
2016-03-25T02:22:57.558Z,1004.66
2016-03-25T02:23:57.575Z,1004.59
2016-03-25T02:24:57.625Z,1004.64
2016-03-25T02:25:57.691Z,1004.63
2016-03-25T02:26:57.724Z,1004.57
2016-03-25T02:27:57.789Z,1004.64
2016-03-25T02:28:57.838Z,1004.62
2016-03-25T02:29:57.888Z,1004.58
2016-03-25T02:30:57.955Z,1004.57
2016-03-25T02:31:58.004Z,1004.58
2016-03-25T02:32:58.037Z,1004.53
2016-03-25T02:33:58.103Z,1004.57
2016-03-25T02:34:58.137Z,1004.59
2016-03-25T02:35:58.201Z,1004.58
2016-03-25T02:36:58.251Z,1004.53
2016-03-25T02:37:58.301Z,1004.54
2016-03-25T02:38:58.351Z,1004.52
2016-03-25T02:39:58.401Z,1004.55
2016-03-25T02:40:58.449Z,1004.56
2016-03-25T02:41:58.499Z,1004.48
2016-03-25T02:42:58.565Z,1004.49
2016-03-25T02:43:58.614Z,1004.44
2016-03-25T02:44:58.663Z,1004.48
2016-03-25T02:45:58.697Z,1004.45
2016-03-25T02:46:58.739Z,1004.5
2016-03-25T02:47:58.789Z,1004.47
2016-03-25T02:48:58.824Z,1004.44
2016-03-25T02:49:58.858Z,1004.44
2016-03-25T02:50:58.908Z,1004.47
2016-03-25T02:51:58.933Z,1004.46
2016-03-25T02:52:59.008Z,1004.43
2016-03-25T02:53:59.037Z,1004.41
2016-03-25T02:54:59.081Z,1004.42
2016-03-25T02:55:59.110Z,1004.41
2016-03-25T02:56:59.155Z,1004.4
2016-03-25T02:57:59.219Z,1004.38
2016-03-25T02:58:59.266Z,1004.36
2016-03-25T02:59:59.314Z,1004.38
2016-03-25T03:00:59.361Z,1004.37
2016-03-25T03:01:59.410Z,1004.36
2016-03-25T03:02:59.459Z,1004.35
2016-03-25T03:03:59.523Z,1004.38
2016-03-25T03:04:59.572Z,1004.37
2016-03-25T03:05:59.605Z,1004.4
2016-03-25T03:06:59.669Z,1004.36
2016-03-25T03:07:59.750Z,1004.4
2016-03-25T03:08:59.768Z,1004.32
2016-03-25T03:09:59.817Z,1004.31
2016-03-25T03:10:59.867Z,1004.3
2016-03-25T03:11:59.915Z,1004.26
2016-03-25T03:12:59.981Z,1004.27
2016-03-25T03:14:00.015Z,1004.26
2016-03-25T03:15:00.080Z,1004.25
2016-03-25T03:16:00.130Z,1004.24
2016-03-25T03:17:00.164Z,1004.25
2016-03-25T03:18:00.244Z,1004.24
2016-03-25T03:19:00.278Z,1004.24
2016-03-25T03:20:00.328Z,1004.21
2016-03-25T03:21:00.378Z,1004.16
2016-03-25T03:22:00.427Z,1004.16
2016-03-25T03:23:00.477Z,1004.19
2016-03-25T03:24:00.542Z,1004.16
2016-03-25T03:25:00.575Z,1004.2
2016-03-25T03:26:00.641Z,1004.21
2016-03-25T03:27:00.691Z,1004.17
2016-03-25T03:28:00.724Z,1004.21
2016-03-25T03:29:00.791Z,1004.22
2016-03-25T03:30:00.840Z,1004.2
2016-03-25T03:31:00.889Z,1004.17
2016-03-25T03:32:00.939Z,1004.16
2016-03-25T03:33:00.989Z,1004.16
2016-03-25T03:34:01.038Z,1004.16
2016-03-25T03:35:01.103Z,1004.12
2016-03-25T03:36:01.138Z,1004.13
2016-03-25T03:37:01.187Z,1004.13
2016-03-25T03:38:01.253Z,1004.07
2016-03-25T03:39:01.302Z,1004.1
2016-03-25T03:40:01.351Z,1004.09
2016-03-25T03:41:01.402Z,1004.12
2016-03-25T03:42:01.451Z,1004.09
2016-03-25T03:43:01.499Z,1004.14
2016-03-25T03:44:01.566Z,1004.15
2016-03-25T03:45:01.615Z,1004.12
2016-03-25T03:46:01.649Z,1004.16
2016-03-25T03:47:01.715Z,1004.16
2016-03-25T03:48:01.763Z,1004.16
2016-03-25T03:49:01.813Z,1004.14
2016-03-25T03:50:01.862Z,1004.16
2016-03-25T03:51:01.912Z,1004.15
2016-03-25T03:52:01.962Z,1004.16
2016-03-25T03:53:02.011Z,1004.16
2016-03-25T03:54:02.062Z,1004.15
2016-03-25T03:55:02.126Z,1004.17
2016-03-25T03:56:02.175Z,1004.14
2016-03-25T03:57:02.242Z,1004.11
2016-03-25T03:58:02.275Z,1004.09
2016-03-25T03:59:02.325Z,1004.05
2016-03-25T04:00:02.374Z,1003.97
2016-03-25T04:01:02.423Z,1004.05
2016-03-25T04:02:02.473Z,1004.04
2016-03-25T04:03:02.522Z,1003.99
2016-03-25T04:04:02.572Z,1004
2016-03-25T04:05:02.622Z,1004.02
2016-03-25T04:06:02.687Z,1004.01
2016-03-25T04:07:02.736Z,1003.93
2016-03-25T04:08:02.785Z,1003.97
2016-03-25T04:09:02.836Z,1003.94
2016-03-25T04:10:02.885Z,1003.93
2016-03-25T04:11:02.935Z,1003.95
2016-03-25T04:12:02.985Z,1003.94
2016-03-25T04:13:03.034Z,1003.93
2016-03-25T04:14:03.083Z,1003.91
2016-03-25T04:15:03.149Z,1003.9
2016-03-25T04:16:03.198Z,1003.92
2016-03-25T04:17:03.248Z,1003.91
2016-03-25T04:18:03.298Z,1003.91
2016-03-25T04:19:03.347Z,1003.9
2016-03-25T04:20:03.396Z,1003.85
2016-03-25T04:21:03.446Z,1003.87
2016-03-25T04:22:03.495Z,1003.91
2016-03-25T04:23:03.546Z,1003.87
2016-03-25T04:24:03.595Z,1003.85
2016-03-25T04:25:03.659Z,1003.84
2016-03-25T04:26:03.709Z,1003.81
2016-03-25T04:27:03.759Z,1003.86
2016-03-25T04:28:03.809Z,1003.85
2016-03-25T04:29:03.858Z,1003.86
2016-03-25T04:30:03.908Z,1003.82
2016-03-25T04:31:03.958Z,1003.84
2016-03-25T04:32:04.006Z,1003.86
2016-03-25T04:33:04.056Z,1003.8
2016-03-25T04:34:04.106Z,1003.85
2016-03-25T04:35:04.171Z,1003.81
2016-03-25T04:36:04.222Z,1003.81
2016-03-25T04:37:04.270Z,1003.79
2016-03-25T04:38:04.319Z,1003.79
2016-03-25T04:39:04.370Z,1003.8
2016-03-25T04:40:04.419Z,1003.78
2016-03-25T04:41:04.468Z,1003.81
2016-03-25T04:42:04.518Z,1003.79
2016-03-25T04:43:04.568Z,1003.74
2016-03-25T04:44:04.618Z,1003.75
2016-03-25T04:45:04.683Z,1003.78
2016-03-25T04:46:04.716Z,1003.74
2016-03-25T04:47:04.781Z,1003.75
2016-03-25T04:48:04.832Z,1003.76
2016-03-25T04:49:04.881Z,1003.75
2016-03-25T04:50:04.929Z,1003.74
2016-03-25T04:51:04.980Z,1003.73
2016-03-25T04:52:05.029Z,1003.74
2016-03-25T04:53:05.079Z,1003.72
2016-03-25T04:54:05.129Z,1003.72
2016-03-25T04:55:05.193Z,1003.73
2016-03-25T04:56:05.243Z,1003.7
2016-03-25T04:57:05.292Z,1003.72
2016-03-25T04:58:05.343Z,1003.69
2016-03-25T04:59:05.392Z,1003.67
2016-03-25T05:00:05.442Z,1003.69
2016-03-25T05:01:05.492Z,1003.65
2016-03-25T05:02:05.541Z,1003.67
2016-03-25T05:03:05.606Z,1003.67
2016-03-25T05:04:05.639Z,1003.63
2016-03-25T05:05:05.705Z,1003.62
2016-03-25T05:06:05.754Z,1003.64
2016-03-25T05:07:05.804Z,1003.65
2016-03-25T05:08:05.855Z,1003.62
2016-03-25T05:09:05.905Z,1003.62
2016-03-25T05:10:05.954Z,1003.63
2016-03-25T05:11:06.004Z,1003.67
2016-03-25T05:12:06.053Z,1003.66
2016-03-25T05:13:06.103Z,1003.64
2016-03-25T05:14:06.168Z,1003.64
2016-03-25T05:15:06.201Z,1003.66
2016-03-25T05:16:06.267Z,1003.64
2016-03-25T05:17:06.316Z,1003.66
2016-03-25T05:18:06.366Z,1003.63
2016-03-25T05:19:06.416Z,1003.68
2016-03-25T05:20:06.464Z,1003.66
2016-03-25T05:21:06.514Z,1003.64
2016-03-25T05:22:06.564Z,1003.64
2016-03-25T05:23:06.644Z,1003.64
2016-03-25T05:24:06.663Z,1003.66
2016-03-25T05:25:06.728Z,1003.64
2016-03-25T05:26:06.763Z,1003.66
2016-03-25T05:27:06.827Z,1003.67
2016-03-25T05:28:06.877Z,1003.65
2016-03-25T05:29:06.927Z,1003.64
2016-03-25T05:30:06.977Z,1003.63
2016-03-25T05:31:07.026Z,1003.58
2016-03-25T05:32:07.076Z,1003.63
2016-03-25T05:33:07.125Z,1003.62
2016-03-25T05:34:07.190Z,1003.59
2016-03-25T05:35:07.224Z,1003.6
2016-03-25T05:36:07.289Z,1003.56
2016-03-25T05:37:07.340Z,1003.59
2016-03-25T05:38:07.388Z,1003.55
2016-03-25T05:39:07.438Z,1003.54
2016-03-25T05:40:07.488Z,1003.58
2016-03-25T05:41:07.537Z,1003.59
2016-03-25T05:42:07.587Z,1003.61
2016-03-25T05:43:07.637Z,1003.61
2016-03-25T05:44:07.698Z,1003.58
2016-03-25T05:45:07.748Z,1003.57
2016-03-25T05:46:07.798Z,1003.56
2016-03-25T05:47:07.847Z,1003.58
2016-03-25T05:48:07.897Z,1003.57
2016-03-25T05:49:07.946Z,1003.54
2016-03-25T05:50:07.997Z,1003.55
2016-03-25T05:51:08.046Z,1003.52
2016-03-25T05:52:08.094Z,1003.53
2016-03-25T05:53:08.145Z,1003.49
2016-03-25T05:54:08.210Z,1003.48
2016-03-25T05:55:08.259Z,1003.46
2016-03-25T05:56:08.310Z,1003.48
2016-03-25T05:57:08.358Z,1003.46
2016-03-25T05:58:08.413Z,1003.45
2016-03-25T05:59:08.463Z,1003.47
2016-03-25T06:00:08.512Z,1003.45
2016-03-25T06:01:08.561Z,1003.45
2016-03-25T06:02:08.612Z,1003.46
2016-03-25T06:03:08.661Z,1003.45
2016-03-25T06:04:08.710Z,1003.43
2016-03-25T06:05:08.776Z,1003.43
2016-03-25T06:06:08.809Z,1003.47
2016-03-25T06:07:08.859Z,1003.43
2016-03-25T06:08:08.925Z,1003.42
2016-03-25T06:09:08.973Z,1003.41
2016-03-25T06:10:09.023Z,1003.41
2016-03-25T06:11:09.073Z,1003.35
2016-03-25T06:12:09.122Z,1003.38
2016-03-25T06:13:09.173Z,1003.38
2016-03-25T06:14:09.222Z,1003.36
2016-03-25T06:15:09.271Z,1003.36
2016-03-25T06:16:09.322Z,1003.4
2016-03-25T06:17:09.386Z,1003.36
2016-03-25T06:18:09.419Z,1003.37
2016-03-25T06:19:09.485Z,1003.34
2016-03-25T06:20:09.535Z,1003.32
2016-03-25T06:21:09.585Z,1003.34
2016-03-25T06:22:09.633Z,1003.36
2016-03-25T06:23:09.683Z,1003.34
2016-03-25T06:24:09.733Z,1003.37
2016-03-25T06:25:09.782Z,1003.31
2016-03-25T06:26:09.832Z,1003.28
2016-03-25T06:27:09.882Z,1003.31
2016-03-25T06:28:09.946Z,1003.32
2016-03-25T06:29:09.996Z,1003.32
2016-03-25T06:30:10.046Z,1003.31
2016-03-25T06:31:10.095Z,1003.34
2016-03-25T06:32:10.145Z,1003.29
2016-03-25T06:33:10.195Z,1003.32
2016-03-25T06:34:10.245Z,1003.29
2016-03-25T06:35:10.294Z,1003.26
2016-03-25T06:36:10.343Z,1003.24
2016-03-25T06:37:10.409Z,1003.29
2016-03-25T06:38:10.459Z,1003.2
2016-03-25T06:39:10.508Z,1003.25
2016-03-25T06:40:10.572Z,1003.2
2016-03-25T06:41:10.654Z,1003.22
2016-03-25T06:42:10.656Z,1003.19
2016-03-25T06:43:10.705Z,1003.18
2016-03-25T06:44:10.756Z,1003.21
2016-03-25T06:45:10.820Z,1003.17
2016-03-25T06:46:10.855Z,1003.19
2016-03-25T06:47:10.920Z,1003.16
2016-03-25T06:48:10.969Z,1003.15
2016-03-25T06:49:11.019Z,1003.19
2016-03-25T06:50:11.069Z,1003.21
2016-03-25T06:51:11.118Z,1003.15
2016-03-25T06:52:11.168Z,1003.2
2016-03-25T06:53:11.217Z,1003.15
2016-03-25T06:54:11.266Z,1003.18
2016-03-25T06:55:11.317Z,1003.22
2016-03-25T06:56:11.366Z,1003.23
2016-03-25T06:57:11.415Z,1003.2
2016-03-25T06:58:11.480Z,1003.2
2016-03-25T06:59:11.530Z,1003.23
2016-03-25T07:00:11.579Z,1003.23
2016-03-25T07:01:11.629Z,1003.16
2016-03-25T07:02:11.679Z,1003.16
2016-03-25T07:03:11.729Z,1003.21
2016-03-25T07:04:11.778Z,1003.16
2016-03-25T07:05:11.828Z,1003.17
2016-03-25T07:06:11.876Z,1003.22
2016-03-25T07:07:11.942Z,1003.26
2016-03-25T07:08:11.976Z,1003.25
2016-03-25T07:09:12.042Z,1003.27
2016-03-25T07:10:12.091Z,1003.32
2016-03-25T07:11:12.141Z,1003.3
2016-03-25T07:12:12.190Z,1003.3
2016-03-25T07:13:12.239Z,1003.31
2016-03-25T07:14:12.289Z,1003.29
2016-03-25T07:15:12.339Z,1003.29
2016-03-25T07:16:12.388Z,1003.26
2016-03-25T07:17:12.453Z,1003.29
2016-03-25T07:18:12.503Z,1003.25
2016-03-25T07:19:12.552Z,1003.31
2016-03-25T07:20:12.603Z,1003.31
2016-03-25T07:21:12.652Z,1003.3
2016-03-25T07:22:12.701Z,1003.25
2016-03-25T07:23:12.752Z,1003.26
2016-03-25T07:24:12.800Z,1003.29
2016-03-25T07:25:12.849Z,1003.28
2016-03-25T07:26:12.899Z,1003.25
2016-03-25T07:27:12.949Z,1003.23
2016-03-25T07:28:13.015Z,1003.19
2016-03-25T07:29:13.064Z,1003.26
2016-03-25T07:30:13.099Z,1003.28
2016-03-25T07:31:13.163Z,1003.24
2016-03-25T07:32:13.213Z,1003.22
2016-03-25T07:33:13.262Z,1003.17
2016-03-25T07:34:13.312Z,1003.24
2016-03-25T07:35:13.361Z,1003.24
2016-03-25T07:36:13.412Z,1003.23
2016-03-25T07:37:13.460Z,1003.16
2016-03-25T07:38:13.510Z,1003.21
2016-03-25T07:39:13.560Z,1003.15
2016-03-25T07:40:13.609Z,1003.19
2016-03-25T07:41:13.658Z,1003.21
2016-03-25T07:42:13.709Z,1003.2
2016-03-25T07:43:13.758Z,1003.23
2016-03-25T07:44:13.808Z,1003.19
2016-03-25T07:45:13.857Z,1003.25
2016-03-25T07:46:13.907Z,1003.25
2016-03-25T07:47:13.972Z,1003.23
2016-03-25T07:48:14.006Z,1003.22
2016-03-25T07:49:14.072Z,1003.21
2016-03-25T07:50:14.105Z,1003.24
2016-03-25T07:51:14.170Z,1003.21
2016-03-25T07:52:14.219Z,1003.32
2016-03-25T07:53:14.269Z,1003.24
2016-03-25T07:54:14.319Z,1003.19
2016-03-25T07:55:14.369Z,1003.24
2016-03-25T07:56:14.418Z,1003.22
2016-03-25T07:57:14.467Z,1003.19
2016-03-25T07:58:14.516Z,1003.23
2016-03-25T07:59:14.567Z,1003.27
2016-03-25T08:00:14.616Z,1003.23
2016-03-25T08:01:14.665Z,1003.26
2016-03-25T08:02:14.716Z,1003.27
2016-03-25T08:03:14.765Z,1003.24
2016-03-25T08:04:14.814Z,1003.21
2016-03-25T08:05:14.864Z,1003.2
2016-03-25T08:06:14.913Z,1003.23
2016-03-25T08:07:14.963Z,1003.21
2016-03-25T08:08:15.028Z,1003.27
2016-03-25T08:09:15.062Z,1003.2
2016-03-25T08:10:15.112Z,1003.23
2016-03-25T08:11:15.176Z,1003.23
2016-03-25T08:12:15.211Z,1003.23
2016-03-25T08:13:15.261Z,1003.2
2016-03-25T08:14:15.309Z,1003.21
2016-03-25T08:15:15.359Z,1003.21
2016-03-25T08:16:15.409Z,1003.21
2016-03-25T08:17:15.459Z,1003.23
2016-03-25T08:18:15.508Z,1003.21
2016-03-25T08:19:15.558Z,1003.24
2016-03-25T08:20:15.608Z,1003.23
2016-03-25T08:21:15.672Z,1003.25
2016-03-25T08:22:15.722Z,1003.22
2016-03-25T08:23:15.772Z,1003.23
2016-03-25T08:24:15.821Z,1003.24
2016-03-25T08:25:15.886Z,1003.24
2016-03-25T08:26:15.921Z,1003.24
2016-03-25T08:27:15.969Z,1003.25
2016-03-25T08:28:16.019Z,1003.27
2016-03-25T08:29:16.069Z,1003.24
2016-03-25T08:30:16.118Z,1003.25
2016-03-25T08:31:16.169Z,1003.26
2016-03-25T08:32:16.218Z,1003.2
2016-03-25T08:33:16.268Z,1003.24
2016-03-25T08:34:16.318Z,1003.23
2016-03-25T08:35:16.382Z,1003.21
2016-03-25T08:36:16.416Z,1003.19
2016-03-25T08:37:16.465Z,1003.21
2016-03-25T08:38:16.531Z,1003.22
2016-03-25T08:39:16.580Z,1003.19
2016-03-25T08:40:16.629Z,1003.2
2016-03-25T08:41:16.679Z,1003.22
2016-03-25T08:42:16.729Z,1003.23
2016-03-25T08:43:16.779Z,1003.19
2016-03-25T08:44:16.828Z,1003.19
2016-03-25T08:45:16.878Z,1003.22
2016-03-25T08:46:16.928Z,1003.18
2016-03-25T08:47:16.977Z,1003.17
2016-03-25T08:48:17.026Z,1003.15
2016-03-25T08:49:17.076Z,1003.15
2016-03-25T08:50:17.142Z,1003.15
2016-03-25T08:51:17.176Z,1003.17
2016-03-25T08:52:17.241Z,1003.15
2016-03-25T08:53:17.290Z,1003.15
2016-03-25T08:54:17.339Z,1003.17
2016-03-25T08:55:17.389Z,1003.18
2016-03-25T08:56:17.439Z,1003.1
2016-03-25T08:57:17.488Z,1003.14
2016-03-25T08:58:17.538Z,1003.11
2016-03-25T08:59:17.587Z,1003.12
2016-03-25T09:00:17.637Z,1003.17
2016-03-25T09:01:17.686Z,1003.14
2016-03-25T09:02:17.736Z,1003.11
2016-03-25T09:03:17.786Z,1003.13
2016-03-25T09:04:17.851Z,1003.17
2016-03-25T09:05:17.900Z,1003.11
2016-03-25T09:06:17.949Z,1003.16
2016-03-25T09:07:17.999Z,1003.16
2016-03-25T09:08:18.048Z,1003.14
2016-03-25T09:09:18.098Z,1003.16
2016-03-25T09:10:18.148Z,1003.21
2016-03-25T09:11:18.198Z,1003.18
2016-03-25T09:12:18.247Z,1003.21
2016-03-25T09:13:18.297Z,1003.23
2016-03-25T09:14:18.346Z,1003.2
2016-03-25T09:15:18.412Z,1003.2
2016-03-25T09:16:18.461Z,1003.22
2016-03-25T09:17:18.511Z,1003.21
2016-03-25T09:18:18.561Z,1003.21
2016-03-25T09:19:18.610Z,1003.25
2016-03-25T09:20:18.659Z,1003.21
2016-03-25T09:21:18.709Z,1003.23
2016-03-25T09:22:18.759Z,1003.17
2016-03-25T09:23:18.809Z,1003.23
2016-03-25T09:24:18.858Z,1003.22
2016-03-25T09:25:18.908Z,1003.18
2016-03-25T09:26:18.958Z,1003.21
2016-03-25T09:27:19.022Z,1003.21
2016-03-25T09:28:19.056Z,1003.17
2016-03-25T09:29:19.122Z,1003.18
2016-03-25T09:30:19.171Z,1003.18
2016-03-25T09:31:19.221Z,1003.16
2016-03-25T09:32:19.270Z,1003.18
2016-03-25T09:33:19.319Z,1003.23
2016-03-25T09:34:19.369Z,1003.15
2016-03-25T09:35:19.419Z,1003.2
2016-03-25T09:36:19.468Z,1003.17
2016-03-25T09:37:19.518Z,1003.18
2016-03-25T09:38:19.568Z,1003.18
2016-03-25T09:39:19.617Z,1003.2
2016-03-25T09:40:19.666Z,1003.17
2016-03-25T09:41:19.731Z,1003.18
2016-03-25T09:42:19.782Z,1003.22
2016-03-25T09:43:19.831Z,1003.2
2016-03-25T09:44:19.881Z,1003.27
2016-03-25T09:45:19.930Z,1003.23
2016-03-25T09:46:19.979Z,1003.22
2016-03-25T09:47:20.028Z,1003.25
2016-03-25T09:48:20.078Z,1003.26
2016-03-25T09:49:20.128Z,1003.27
2016-03-25T09:50:20.178Z,1003.24
2016-03-25T09:51:20.242Z,1003.26
2016-03-25T09:52:20.278Z,1003.24
2016-03-25T09:53:20.342Z,1003.23
2016-03-25T09:54:20.391Z,1003.25
2016-03-25T09:55:20.442Z,1003.24
2016-03-25T09:56:20.491Z,1003.27
2016-03-25T09:57:20.541Z,1003.27
2016-03-25T09:58:20.605Z,1003.26
2016-03-25T09:59:20.640Z,1003.25
2016-03-25T10:00:20.689Z,1003.28
2016-03-25T10:01:20.739Z,1003.29
2016-03-25T10:02:20.805Z,1003.26
2016-03-25T10:03:20.838Z,1003.32
2016-03-25T10:04:20.903Z,1003.34
2016-03-25T10:05:20.953Z,1003.33
2016-03-25T10:06:21.002Z,1003.27
2016-03-25T10:07:21.052Z,1003.3
2016-03-25T10:08:21.101Z,1003.34
2016-03-25T10:09:21.151Z,1003.29
2016-03-25T10:10:21.201Z,1003.29
2016-03-25T10:11:21.249Z,1003.29
2016-03-25T10:12:21.299Z,1003.29
2016-03-25T10:13:21.349Z,1003.28
2016-03-25T10:14:21.399Z,1003.27
2016-03-25T10:15:21.448Z,1003.32
2016-03-25T10:16:21.512Z,1003.32
2016-03-25T10:17:21.563Z,1003.33
2016-03-25T10:18:21.612Z,1003.33
2016-03-25T10:19:21.662Z,1003.31
2016-03-25T10:20:21.712Z,1003.33
2016-03-25T10:21:21.762Z,1003.3
2016-03-25T10:22:21.811Z,1003.29
2016-03-25T10:23:21.860Z,1003.31
2016-03-25T10:24:21.973Z,1003.34
2016-03-25T10:25:21.975Z,1003.33
2016-03-25T10:26:22.025Z,1003.33
2016-03-25T10:27:22.074Z,1003.31
2016-03-25T10:28:22.124Z,1003.32
2016-03-25T10:29:22.172Z,1003.35
2016-03-25T10:30:22.222Z,1003.34
2016-03-25T10:31:22.272Z,1003.3
2016-03-25T10:32:22.322Z,1003.29
2016-03-25T10:33:22.387Z,1003.3
2016-03-25T10:34:22.421Z,1003.3
2016-03-25T10:35:22.471Z,1003.32
2016-03-25T10:36:22.520Z,1003.32
2016-03-25T10:37:22.585Z,1003.36
2016-03-25T10:38:22.635Z,1003.34
2016-03-25T10:39:22.699Z,1003.36
2016-03-25T10:40:22.734Z,1003.39
2016-03-25T10:41:22.784Z,1003.36
2016-03-25T10:42:22.832Z,1003.36
2016-03-25T10:43:22.882Z,1003.35
2016-03-25T10:44:22.932Z,1003.36
2016-03-25T10:45:22.981Z,1003.36
2016-03-25T10:46:23.031Z,1003.37
2016-03-25T10:47:23.081Z,1003.38
2016-03-25T10:48:23.131Z,1003.38
2016-03-25T10:49:23.195Z,1003.39
2016-03-25T10:50:23.245Z,1003.34
2016-03-25T10:51:23.295Z,1003.33
2016-03-25T10:52:23.344Z,1003.36
2016-03-25T10:53:23.394Z,1003.35
2016-03-25T10:54:23.444Z,1003.34
2016-03-25T10:55:23.492Z,1003.34
2016-03-25T10:56:23.558Z,1003.3
2016-03-25T10:57:23.592Z,1003.34
2016-03-25T10:58:23.641Z,1003.3
2016-03-25T10:59:23.691Z,1003.31
2016-03-25T11:00:23.741Z,1003.32
2016-03-25T11:01:23.790Z,1003.34
2016-03-25T11:02:23.855Z,1003.33
2016-03-25T11:03:23.905Z,1003.33
2016-03-25T11:04:23.955Z,1003.3
2016-03-25T11:05:24.004Z,1003.35
2016-03-25T11:06:24.054Z,1003.33
2016-03-25T11:07:24.104Z,1003.32
2016-03-25T11:08:24.152Z,1003.31
2016-03-25T11:09:24.202Z,1003.26
2016-03-25T11:10:24.252Z,1003.33
2016-03-25T11:11:24.317Z,1003.29
2016-03-25T11:12:24.351Z,1003.34
2016-03-25T11:13:24.416Z,1003.32
2016-03-25T11:14:24.465Z,1003.34
2016-03-25T11:15:24.515Z,1003.3
2016-03-25T11:16:24.565Z,1003.28
2016-03-25T11:17:24.614Z,1003.22
2016-03-25T11:18:24.664Z,1003.26
2016-03-25T11:19:24.714Z,1003.27
2016-03-25T11:20:24.764Z,1003.34
2016-03-25T11:21:24.812Z,1003.3
2016-03-25T11:22:24.878Z,1003.28
2016-03-25T11:23:24.928Z,1003.25
2016-03-25T11:24:24.962Z,1003.25
2016-03-25T11:25:25.028Z,1003.26
2016-03-25T11:26:25.076Z,1003.3
2016-03-25T11:27:25.126Z,1003.26
2016-03-25T11:28:25.176Z,1003.24
2016-03-25T11:29:25.226Z,1003.27
2016-03-25T11:30:25.275Z,1003.28
2016-03-25T11:31:25.325Z,1003.24
2016-03-25T11:32:25.375Z,1003.26
2016-03-25T11:33:25.424Z,1003.22
2016-03-25T11:34:25.473Z,1003.27
2016-03-25T11:35:25.523Z,1003.25
2016-03-25T11:36:25.572Z,1003.29
2016-03-25T11:37:25.638Z,1003.24
2016-03-25T11:38:25.688Z,1003.24
2016-03-25T11:39:25.737Z,1003.26
2016-03-25T11:40:25.786Z,1003.28
2016-03-25T11:41:25.844Z,1003.25
2016-03-25T11:42:25.884Z,1003.27
2016-03-25T11:43:25.934Z,1003.26
2016-03-25T11:44:25.993Z,1003.24
2016-03-25T11:45:26.043Z,1003.21
2016-03-25T11:46:26.076Z,1003.22
2016-03-25T11:47:26.126Z,1003.24
2016-03-25T11:48:26.175Z,1003.21
2016-03-25T11:49:26.240Z,1003.23
2016-03-25T11:50:26.290Z,1003.22
2016-03-25T11:51:26.339Z,1003.22
2016-03-25T11:52:26.389Z,1003.22
2016-03-25T11:53:26.429Z,1003.2
2016-03-25T11:54:26.475Z,1003.23
2016-03-25T11:55:26.499Z,1003.27
2016-03-25T11:56:26.553Z,1003.26
2016-03-25T11:57:26.591Z,1003.23
2016-03-25T11:58:26.636Z,1003.26
2016-03-25T11:59:26.682Z,1003.25
2016-03-25T12:00:26.726Z,1003.26
2016-03-25T12:01:26.772Z,1003.29
2016-03-25T12:02:26.817Z,1003.28
2016-03-25T12:03:26.865Z,1003.26
2016-03-25T12:04:26.914Z,1003.33
2016-03-25T12:05:26.963Z,1003.25
2016-03-25T12:06:27.011Z,1003.31
2016-03-25T12:07:27.060Z,1003.24
2016-03-25T12:08:27.123Z,1003.25